sensor_id;sensor_type;location;lat;lon;timestamp;noise_LAeq;noise_LA_min;noise_LA_max;noise_LA01;noise_LA95
69620;Laerm;57654;51.434;5.984;2024-01-30T00:00:10;33.98;26.85;48.49;;
69620;Laerm;57654;51.434;5.984;2024-01-30T00:00:20;34.73;27.04;49.32;;
69620;Laerm;57654;51.434;5.984;2024-01-30T00:00:31;33.82;27.08;47.90;;
69620;Laerm;57654;51.434;5.984;2024-01-30T00:00:41;33.70;27.15;45.93;;
69620;Laerm;57654;51.434;5.984;2024-01-30T00:00:51;34.03;27.19;46.53;;
69620;Laerm;57654;51.434;5.984;2024-01-30T00:01:01;33.92;27.14;48.11;;
69620;Laerm;57654;51.434;5.984;2024-01-30T00:01:13;34.56;26.97;48.99;;
69620;Laerm;57654;51.434;5.984;2024-01-30T00:01:23;34.25;27.30;50.20;;
69620;Laerm;57654;51.434;5.984;2024-01-30T00:01:33;34.44;27.09;47.08;;
69620;Laerm;57654;51.434;5.984;2024-01-30T00:01:43;34.01;27.20;47.29;;
69620;Laerm;57654;51.434;5.984;2024-01-30T00:01:54;33.58;27.29;47.07;;
69620;Laerm;57654;51.434;5.984;2024-01-30T00:02:04;34.18;26.90;48.18;;
69620;Laerm;57654;51.434;5.984;2024-01-30T00:02:14;34.28;27.08;48.96;;
69620;Laerm;57654;51.434;5.984;2024-01-30T00:02:24;34.88;27.18;49.89;;
69620;Laerm;57654;51.434;5.984;2024-01-30T00:02:35;33.96;27.11;48.04;;
69620;Laerm;57654;51.434;5.984;2024-01-30T00:02:45;34.14;26.95;48.72;;
69620;Laerm;57654;51.434;5.984;2024-01-30T00:02:56;34.00;27.03;47.75;;
69620;Laerm;57654;51.434;5.984;2024-01-30T00:03:06;34.22;26.93;49.48;;
69620;Laerm;57654;51.434;5.984;2024-01-30T00:03:18;33.94;26.91;48.59;;
69620;Laerm;57654;51.434;5.984;2024-01-30T00:03:28;34.76;27.20;49.41;;
69620;Laerm;57654;51.434;5.984;2024-01-30T00:03:40;34.08;26.82;47.70;;
69620;Laerm;57654;51.434;5.984;2024-01-30T00:03:50;34.24;27.13;48.42;;
69620;Laerm;57654;51.434;5.984;2024-01-30T00:04:01;34.97;26.94;48.77;;
69620;Laerm;57654;51.434;5.984;2024-01-30T00:04:12;35.59;27.11;50.67;;
69620;Laerm;57654;51.434;5.984;2024-01-30T00:04:22;35.41;27.28;49.40;;
69620;Laerm;57654;51.434;5.984;2024-01-30T00:04:32;35.12;27.10;48.78;;
69620;Laerm;57654;51.434;5.984;2024-01-30T00:04:42;35.57;27.16;50.51;;
69620;Laerm;57654;51.434;5.984;2024-01-30T00:04:53;35.50;27.10;49.88;;
69620;Laerm;57654;51.434;5.984;2024-01-30T00:05:03;35.43;27.08;49.07;;
69620;Laerm;57654;51.434;5.984;2024-01-30T00:05:13;35.52;27.21;49.31;;
69620;Laerm;57654;51.434;5.984;2024-01-30T00:05:24;34.89;27.11;49.51;;
69620;Laerm;57654;51.434;5.984;2024-01-30T00:05:34;35.63;27.23;49.49;;
69620;Laerm;57654;51.434;5.984;2024-01-30T00:05:44;35.52;27.21;49.75;;
69620;Laerm;57654;51.434;5.984;2024-01-30T00:05:54;35.37;27.09;49.10;;
69620;Laerm;57654;51.434;5.984;2024-01-30T00:06:05;35.82;27.17;50.63;;
69620;Laerm;57654;51.434;5.984;2024-01-30T00:06:17;35.62;27.21;48.98;;
69620;Laerm;57654;51.434;5.984;2024-01-30T00:06:28;35.31;26.89;49.32;;
69620;Laerm;57654;51.434;5.984;2024-01-30T00:06:38;35.73;27.00;49.49;;
69620;Laerm;57654;51.434;5.984;2024-01-30T00:06:48;35.68;27.21;49.50;;
69620;Laerm;57654;51.434;5.984;2024-01-30T00:06:58;35.47;27.16;49.25;;
69620;Laerm;57654;51.434;5.984;2024-01-30T00:07:09;35.54;27.12;49.68;;
69620;Laerm;57654;51.434;5.984;2024-01-30T00:07:19;35.96;27.26;49.63;;
69620;Laerm;57654;51.434;5.984;2024-01-30T00:07:29;35.71;27.27;48.68;;
69620;Laerm;57654;51.434;5.984;2024-01-30T00:07:39;36.45;27.74;50.49;;
69620;Laerm;57654;51.434;5.984;2024-01-30T00:07:50;36.45;27.42;50.67;;
69620;Laerm;57654;51.434;5.984;2024-01-30T00:08:00;35.44;27.22;49.51;;
69620;Laerm;57654;51.434;5.984;2024-01-30T00:08:10;35.41;27.13;49.39;;
69620;Laerm;57654;51.434;5.984;2024-01-30T00:08:20;35.36;27.16;49.47;;
69620;Laerm;57654;51.434;5.984;2024-01-30T00:08:31;36.31;27.14;50.60;;
69620;Laerm;57654;51.434;5.984;2024-01-30T00:08:41;35.62;26.88;50.23;;
69620;Laerm;57654;51.434;5.984;2024-01-30T00:08:51;35.46;26.78;48.33;;
69620;Laerm;57654;51.434;5.984;2024-01-30T00:09:02;35.00;27.00;49.11;;
69620;Laerm;57654;51.434;5.984;2024-01-30T00:09:12;35.11;27.17;48.80;;
69620;Laerm;57654;51.434;5.984;2024-01-30T00:09:22;35.42;27.10;49.38;;
69620;Laerm;57654;51.434;5.984;2024-01-30T00:09:32;35.57;26.59;49.89;;
69620;Laerm;57654;51.434;5.984;2024-01-30T00:09:43;35.46;27.16;50.67;;
69620;Laerm;57654;51.434;5.984;2024-01-30T00:09:53;34.96;27.10;48.56;;
69620;Laerm;57654;51.434;5.984;2024-01-30T00:10:03;35.41;26.95;49.78;;
69620;Laerm;57654;51.434;5.984;2024-01-30T00:10:14;35.19;27.04;49.67;;
69620;Laerm;57654;51.434;5.984;2024-01-30T00:10:25;34.69;27.33;48.22;;
69620;Laerm;57654;51.434;5.984;2024-01-30T00:10:35;33.59;27.16;46.90;;
69620;Laerm;57654;51.434;5.984;2024-01-30T00:10:46;33.93;27.03;47.21;;
69620;Laerm;57654;51.434;5.984;2024-01-30T00:10:56;34.26;27.06;48.03;;
69620;Laerm;57654;51.434;5.984;2024-01-30T00:11:07;34.33;26.99;47.63;;
69620;Laerm;57654;51.434;5.984;2024-01-30T00:11:17;33.79;27.09;46.21;;
69620;Laerm;57654;51.434;5.984;2024-01-30T00:11:27;34.91;27.19;48.83;;
69620;Laerm;57654;51.434;5.984;2024-01-30T00:11:38;33.99;27.07;48.50;;
69620;Laerm;57654;51.434;5.984;2024-01-30T00:11:49;33.99;26.76;48.34;;
69620;Laerm;57654;51.434;5.984;2024-01-30T00:11:59;34.42;26.93;48.25;;
69620;Laerm;57654;51.434;5.984;2024-01-30T00:12:09;34.16;26.96;47.47;;
69620;Laerm;57654;51.434;5.984;2024-01-30T00:12:19;34.77;26.98;49.62;;
69620;Laerm;57654;51.434;5.984;2024-01-30T00:12:30;34.52;27.02;47.83;;
69620;Laerm;57654;51.434;5.984;2024-01-30T00:12:41;33.90;27.02;47.00;;
69620;Laerm;57654;51.434;5.984;2024-01-30T00:12:52;34.20;27.20;47.69;;
69620;Laerm;57654;51.434;5.984;2024-01-30T00:13:02;34.47;27.26;48.68;;
69620;Laerm;57654;51.434;5.984;2024-01-30T00:13:13;34.65;27.10;48.19;;
69620;Laerm;57654;51.434;5.984;2024-01-30T00:13:24;34.66;27.13;48.82;;
69620;Laerm;57654;51.434;5.984;2024-01-30T00:13:34;34.33;27.24;48.65;;
69620;Laerm;57654;51.434;5.984;2024-01-30T00:13:45;34.03;26.96;48.58;;
69620;Laerm;57654;51.434;5.984;2024-01-30T00:13:55;34.27;27.17;49.00;;
69620;Laerm;57654;51.434;5.984;2024-01-30T00:14:08;34.62;27.27;49.74;;
69620;Laerm;57654;51.434;5.984;2024-01-30T00:14:18;34.52;27.44;48.13;;
69620;Laerm;57654;51.434;5.984;2024-01-30T00:14:28;38.59;28.42;48.78;;
69620;Laerm;57654;51.434;5.984;2024-01-30T00:14:40;46.38;42.10;49.94;;
69620;Laerm;57654;51.434;5.984;2024-01-30T00:14:51;45.37;41.78;50.09;;
69620;Laerm;57654;51.434;5.984;2024-01-30T00:15:01;39.15;27.77;49.06;;
69620;Laerm;57654;51.434;5.984;2024-01-30T00:15:11;34.98;27.04;50.36;;
69620;Laerm;57654;51.434;5.984;2024-01-30T00:15:21;34.33;26.94;49.21;;
69620;Laerm;57654;51.434;5.984;2024-01-30T00:15:32;33.90;27.06;47.14;;
69620;Laerm;57654;51.434;5.984;2024-01-30T00:15:42;33.84;27.12;46.49;;
69620;Laerm;57654;51.434;5.984;2024-01-30T00:15:53;33.76;27.14;46.38;;
69620;Laerm;57654;51.434;5.984;2024-01-30T00:16:04;34.40;27.04;48.49;;
69620;Laerm;57654;51.434;5.984;2024-01-30T00:16:20;34.36;27.02;49.30;;
69620;Laerm;57654;51.434;5.984;2024-01-30T00:16:30;34.80;27.11;49.92;;
69620;Laerm;57654;51.434;5.984;2024-01-30T00:16:41;34.32;27.22;47.18;;
69620;Laerm;57654;51.434;5.984;2024-01-30T00:16:51;34.37;27.13;47.84;;
69620;Laerm;57654;51.434;5.984;2024-01-30T00:17:01;34.61;27.26;48.81;;
69620;Laerm;57654;51.434;5.984;2024-01-30T00:17:12;34.34;27.03;50.12;;
69620;Laerm;57654;51.434;5.984;2024-01-30T00:17:22;34.33;27.16;49.35;;
69620;Laerm;57654;51.434;5.984;2024-01-30T00:17:32;34.23;27.05;48.77;;
69620;Laerm;57654;51.434;5.984;2024-01-30T00:17:42;34.16;27.04;47.72;;
69620;Laerm;57654;51.434;5.984;2024-01-30T00:17:53;34.20;27.13;47.44;;
69620;Laerm;57654;51.434;5.984;2024-01-30T00:18:03;34.79;27.25;48.29;;
69620;Laerm;57654;51.434;5.984;2024-01-30T00:18:13;34.70;26.97;48.23;;
69620;Laerm;57654;51.434;5.984;2024-01-30T00:18:24;33.94;27.09;48.43;;
69620;Laerm;57654;51.434;5.984;2024-01-30T00:18:34;35.09;27.19;50.44;;
69620;Laerm;57654;51.434;5.984;2024-01-30T00:18:44;33.92;26.93;47.97;;
69620;Laerm;57654;51.434;5.984;2024-01-30T00:18:55;34.53;27.04;49.31;;
69620;Laerm;57654;51.434;5.984;2024-01-30T00:19:06;34.73;26.93;49.92;;
69620;Laerm;57654;51.434;5.984;2024-01-30T00:19:18;34.50;27.24;48.26;;
69620;Laerm;57654;51.434;5.984;2024-01-30T00:19:28;35.17;27.13;49.78;;
69620;Laerm;57654;51.434;5.984;2024-01-30T00:19:38;34.01;27.08;47.20;;
69620;Laerm;57654;51.434;5.984;2024-01-30T00:19:48;34.25;27.00;47.76;;
69620;Laerm;57654;51.434;5.984;2024-01-30T00:19:59;35.55;26.95;49.61;;
69620;Laerm;57654;51.434;5.984;2024-01-30T00:20:09;35.38;27.23;49.30;;
69620;Laerm;57654;51.434;5.984;2024-01-30T00:20:20;35.73;26.96;48.82;;
69620;Laerm;57654;51.434;5.984;2024-01-30T00:20:30;35.24;27.26;49.71;;
69620;Laerm;57654;51.434;5.984;2024-01-30T00:20:40;35.40;26.88;51.09;;
69620;Laerm;57654;51.434;5.984;2024-01-30T00:20:51;36.30;27.24;51.06;;
69620;Laerm;57654;51.434;5.984;2024-01-30T00:21:01;35.40;27.20;49.24;;
69620;Laerm;57654;51.434;5.984;2024-01-30T00:21:11;36.24;27.12;49.54;;
69620;Laerm;57654;51.434;5.984;2024-01-30T00:21:21;35.13;27.01;49.02;;
69620;Laerm;57654;51.434;5.984;2024-01-30T00:21:32;35.37;27.25;49.48;;
69620;Laerm;57654;51.434;5.984;2024-01-30T00:21:42;40.58;28.96;49.53;;
69620;Laerm;57654;51.434;5.984;2024-01-30T00:21:52;45.16;42.96;50.07;;
69620;Laerm;57654;51.434;5.984;2024-01-30T00:22:03;45.33;42.63;51.37;;
69620;Laerm;57654;51.434;5.984;2024-01-30T00:22:13;43.03;33.67;50.13;;
69620;Laerm;57654;51.434;5.984;2024-01-30T00:22:23;35.73;27.67;49.72;;
69620;Laerm;57654;51.434;5.984;2024-01-30T00:22:34;34.18;27.07;47.83;;
69620;Laerm;57654;51.434;5.984;2024-01-30T00:22:44;33.83;27.35;47.01;;
69620;Laerm;57654;51.434;5.984;2024-01-30T00:22:54;34.63;27.14;49.19;;
69620;Laerm;57654;51.434;5.984;2024-01-30T00:23:04;34.06;27.01;47.09;;
69620;Laerm;57654;51.434;5.984;2024-01-30T00:23:15;34.43;27.09;48.71;;
69620;Laerm;57654;51.434;5.984;2024-01-30T00:23:25;34.43;27.32;48.09;;
69620;Laerm;57654;51.434;5.984;2024-01-30T00:23:35;34.84;27.22;49.35;;
69620;Laerm;57654;51.434;5.984;2024-01-30T00:23:46;34.26;26.90;49.44;;
69620;Laerm;57654;51.434;5.984;2024-01-30T00:23:56;34.36;27.31;48.68;;
69620;Laerm;57654;51.434;5.984;2024-01-30T00:24:06;35.23;27.24;50.62;;
69620;Laerm;57654;51.434;5.984;2024-01-30T00:24:17;34.92;26.90;49.00;;
69620;Laerm;57654;51.434;5.984;2024-01-30T00:24:27;34.63;27.35;48.87;;
69620;Laerm;57654;51.434;5.984;2024-01-30T00:24:37;34.71;27.21;48.49;;
69620;Laerm;57654;51.434;5.984;2024-01-30T00:24:47;34.71;27.02;49.22;;
69620;Laerm;57654;51.434;5.984;2024-01-30T00:24:58;34.54;27.37;49.36;;
69620;Laerm;57654;51.434;5.984;2024-01-30T00:25:08;34.81;27.13;48.91;;
69620;Laerm;57654;51.434;5.984;2024-01-30T00:25:18;34.37;27.01;48.49;;
69620;Laerm;57654;51.434;5.984;2024-01-30T00:25:29;34.80;27.04;48.67;;
69620;Laerm;57654;51.434;5.984;2024-01-30T00:25:39;39.36;27.30;54.69;;
69620;Laerm;57654;51.434;5.984;2024-01-30T00:25:49;40.26;37.15;49.02;;
69620;Laerm;57654;51.434;5.984;2024-01-30T00:26:00;39.00;35.81;47.86;;
69620;Laerm;57654;51.434;5.984;2024-01-30T00:26:10;38.80;35.53;49.42;;
69620;Laerm;57654;51.434;5.984;2024-01-30T00:26:21;38.63;34.81;49.33;;
69620;Laerm;57654;51.434;5.984;2024-01-30T00:26:31;38.52;34.98;50.16;;
69620;Laerm;57654;51.434;5.984;2024-01-30T00:26:41;37.91;34.11;49.70;;
69620;Laerm;57654;51.434;5.984;2024-01-30T00:26:52;37.53;33.95;49.06;;
69620;Laerm;57654;51.434;5.984;2024-01-30T00:27:02;37.87;34.06;49.67;;
69620;Laerm;57654;51.434;5.984;2024-01-30T00:27:12;37.88;34.47;48.90;;
69620;Laerm;57654;51.434;5.984;2024-01-30T00:27:23;38.18;34.12;49.73;;
69620;Laerm;57654;51.434;5.984;2024-01-30T00:27:33;38.45;34.36;49.64;;
69620;Laerm;57654;51.434;5.984;2024-01-30T00:27:43;38.03;34.51;48.74;;
69620;Laerm;57654;51.434;5.984;2024-01-30T00:27:53;37.67;34.23;48.62;;
69620;Laerm;57654;51.434;5.984;2024-01-30T00:28:04;37.74;34.01;47.62;;
69620;Laerm;57654;51.434;5.984;2024-01-30T00:28:14;37.63;34.09;48.60;;
69620;Laerm;57654;51.434;5.984;2024-01-30T00:28:24;37.71;34.09;50.33;;
69620;Laerm;57654;51.434;5.984;2024-01-30T00:28:35;37.51;34.13;47.56;;
69620;Laerm;57654;51.434;5.984;2024-01-30T00:28:45;37.30;34.20;48.48;;
69620;Laerm;57654;51.434;5.984;2024-01-30T00:28:55;37.75;33.86;49.51;;
69620;Laerm;57654;51.434;5.984;2024-01-30T00:29:05;37.41;33.41;49.24;;
69620;Laerm;57654;51.434;5.984;2024-01-30T00:29:16;37.32;33.51;49.61;;
69620;Laerm;57654;51.434;5.984;2024-01-30T00:29:29;37.12;33.27;49.14;;
69620;Laerm;57654;51.434;5.984;2024-01-30T00:29:43;37.21;33.48;48.69;;
69620;Laerm;57654;51.434;5.984;2024-01-30T00:29:53;37.36;33.23;48.93;;
69620;Laerm;57654;51.434;5.984;2024-01-30T00:30:03;37.16;33.24;49.35;;
69620;Laerm;57654;51.434;5.984;2024-01-30T00:30:15;37.21;33.32;48.62;;
69620;Laerm;57654;51.434;5.984;2024-01-30T00:30:25;36.98;33.16;48.80;;
69620;Laerm;57654;51.434;5.984;2024-01-30T00:30:35;37.44;33.32;49.56;;
69620;Laerm;57654;51.434;5.984;2024-01-30T00:30:45;36.76;33.31;47.40;;
69620;Laerm;57654;51.434;5.984;2024-01-30T00:30:56;37.02;33.11;47.80;;
69620;Laerm;57654;51.434;5.984;2024-01-30T00:31:06;36.95;32.82;50.51;;
69620;Laerm;57654;51.434;5.984;2024-01-30T00:31:16;37.32;32.82;50.30;;
69620;Laerm;57654;51.434;5.984;2024-01-30T00:31:26;36.96;32.88;48.93;;
69620;Laerm;57654;51.434;5.984;2024-01-30T00:31:37;37.03;32.81;48.99;;
69620;Laerm;57654;51.434;5.984;2024-01-30T00:31:47;36.93;32.86;49.22;;
69620;Laerm;57654;51.434;5.984;2024-01-30T00:31:57;36.75;32.73;48.90;;
69620;Laerm;57654;51.434;5.984;2024-01-30T00:32:08;36.96;33.01;48.52;;
69620;Laerm;57654;51.434;5.984;2024-01-30T00:32:18;37.11;32.59;49.72;;
69620;Laerm;57654;51.434;5.984;2024-01-30T00:32:29;36.81;32.70;49.23;;
69620;Laerm;57654;51.434;5.984;2024-01-30T00:32:39;37.09;32.96;48.62;;
69620;Laerm;57654;51.434;5.984;2024-01-30T00:32:49;35.65;27.79;47.67;;
69620;Laerm;57654;51.434;5.984;2024-01-30T00:33:00;34.39;27.41;49.64;;
69620;Laerm;57654;51.434;5.984;2024-01-30T00:33:10;34.81;27.25;50.41;;
69620;Laerm;57654;51.434;5.984;2024-01-30T00:33:20;34.65;27.39;48.35;;
69620;Laerm;57654;51.434;5.984;2024-01-30T00:33:31;34.91;27.49;49.75;;
69620;Laerm;57654;51.434;5.984;2024-01-30T00:33:42;34.54;27.50;49.01;;
69620;Laerm;57654;51.434;5.984;2024-01-30T00:33:52;34.41;27.52;48.96;;
69620;Laerm;57654;51.434;5.984;2024-01-30T00:34:02;34.71;27.39;48.41;;
69620;Laerm;57654;51.434;5.984;2024-01-30T00:34:12;34.57;27.29;49.37;;
69620;Laerm;57654;51.434;5.984;2024-01-30T00:34:23;34.58;27.67;49.46;;
69620;Laerm;57654;51.434;5.984;2024-01-30T00:34:33;34.71;27.44;49.17;;
69620;Laerm;57654;51.434;5.984;2024-01-30T00:34:43;34.53;27.24;48.42;;
69620;Laerm;57654;51.434;5.984;2024-01-30T00:34:53;33.96;27.15;47.37;;
69620;Laerm;57654;51.434;5.984;2024-01-30T00:35:04;34.40;27.17;48.29;;
69620;Laerm;57654;51.434;5.984;2024-01-30T00:35:14;34.57;27.22;48.27;;
69620;Laerm;57654;51.434;5.984;2024-01-30T00:35:24;35.14;27.23;49.46;;
69620;Laerm;57654;51.434;5.984;2024-01-30T00:35:35;34.55;27.20;49.05;;
69620;Laerm;57654;51.434;5.984;2024-01-30T00:35:45;34.20;26.96;49.32;;
69620;Laerm;57654;51.434;5.984;2024-01-30T00:35:55;35.09;27.27;48.83;;
69620;Laerm;57654;51.434;5.984;2024-01-30T00:36:06;41.09;30.60;50.21;;
69620;Laerm;57654;51.434;5.984;2024-01-30T00:36:16;42.24;39.44;48.72;;
69620;Laerm;57654;51.434;5.984;2024-01-30T00:36:27;42.10;35.19;49.80;;
69620;Laerm;57654;51.434;5.984;2024-01-30T00:36:40;35.01;27.70;47.57;;
69620;Laerm;57654;51.434;5.984;2024-01-30T00:36:50;34.57;27.48;47.91;;
69620;Laerm;57654;51.434;5.984;2024-01-30T00:37:00;34.39;27.34;47.20;;
69620;Laerm;57654;51.434;5.984;2024-01-30T00:37:10;34.05;27.32;47.50;;
69620;Laerm;57654;51.434;5.984;2024-01-30T00:37:21;34.54;27.21;48.23;;
69620;Laerm;57654;51.434;5.984;2024-01-30T00:37:31;34.17;27.24;49.00;;
69620;Laerm;57654;51.434;5.984;2024-01-30T00:37:42;34.01;27.21;48.48;;
69620;Laerm;57654;51.434;5.984;2024-01-30T00:37:52;34.51;27.35;49.25;;
69620;Laerm;57654;51.434;5.984;2024-01-30T00:38:02;34.77;27.24;48.97;;
69620;Laerm;57654;51.434;5.984;2024-01-30T00:38:13;34.70;27.21;50.21;;
69620;Laerm;57654;51.434;5.984;2024-01-30T00:38:23;34.58;27.08;48.63;;
69620;Laerm;57654;51.434;5.984;2024-01-30T00:38:33;35.13;27.23;48.05;;
69620;Laerm;57654;51.434;5.984;2024-01-30T00:38:43;34.35;27.36;48.31;;
69620;Laerm;57654;51.434;5.984;2024-01-30T00:38:54;34.27;27.30;48.26;;
69620;Laerm;57654;51.434;5.984;2024-01-30T00:39:04;34.02;27.19;47.59;;
69620;Laerm;57654;51.434;5.984;2024-01-30T00:39:17;34.58;26.81;49.63;;
69620;Laerm;57654;51.434;5.984;2024-01-30T00:39:29;34.75;27.14;47.82;;
69620;Laerm;57654;51.434;5.984;2024-01-30T00:39:39;34.28;26.99;47.29;;
69620;Laerm;57654;51.434;5.984;2024-01-30T00:39:50;34.26;27.17;48.77;;
69620;Laerm;57654;51.434;5.984;2024-01-30T00:40:00;34.40;27.07;48.95;;
69620;Laerm;57654;51.434;5.984;2024-01-30T00:40:10;34.26;27.27;47.74;;
69620;Laerm;57654;51.434;5.984;2024-01-30T00:40:25;34.76;26.96;50.50;;
69620;Laerm;57654;51.434;5.984;2024-01-30T00:40:35;34.01;27.00;47.74;;
69620;Laerm;57654;51.434;5.984;2024-01-30T00:40:46;34.74;26.69;48.57;;
69620;Laerm;57654;51.434;5.984;2024-01-30T00:40:56;34.12;27.36;47.44;;
69620;Laerm;57654;51.434;5.984;2024-01-30T00:41:07;35.06;27.16;50.48;;
69620;Laerm;57654;51.434;5.984;2024-01-30T00:41:17;34.63;27.05;49.06;;
69620;Laerm;57654;51.434;5.984;2024-01-30T00:41:28;34.14;27.28;47.33;;
69620;Laerm;57654;51.434;5.984;2024-01-30T00:41:38;34.35;27.06;47.84;;
69620;Laerm;57654;51.434;5.984;2024-01-30T00:41:48;33.88;27.19;46.79;;
69620;Laerm;57654;51.434;5.984;2024-01-30T00:41:59;34.40;27.20;48.77;;
69620;Laerm;57654;51.434;5.984;2024-01-30T00:42:09;34.49;26.73;49.33;;
69620;Laerm;57654;51.434;5.984;2024-01-30T00:42:19;34.88;27.28;49.95;;
69620;Laerm;57654;51.434;5.984;2024-01-30T00:42:29;34.72;26.94;49.38;;
69620;Laerm;57654;51.434;5.984;2024-01-30T00:42:40;34.00;27.15;48.54;;
69620;Laerm;57654;51.434;5.984;2024-01-30T00:42:50;34.10;26.99;46.18;;
69620;Laerm;57654;51.434;5.984;2024-01-30T00:43:01;34.49;27.17;48.83;;
69620;Laerm;57654;51.434;5.984;2024-01-30T00:43:11;34.52;27.17;48.18;;
69620;Laerm;57654;51.434;5.984;2024-01-30T00:43:21;35.17;27.04;50.22;;
69620;Laerm;57654;51.434;5.984;2024-01-30T00:43:31;34.70;27.25;48.62;;
69620;Laerm;57654;51.434;5.984;2024-01-30T00:43:42;34.00;27.23;47.89;;
69620;Laerm;57654;51.434;5.984;2024-01-30T00:43:52;34.15;27.13;48.59;;
69620;Laerm;57654;51.434;5.984;2024-01-30T00:44:02;34.61;27.02;48.23;;
69620;Laerm;57654;51.434;5.984;2024-01-30T00:44:12;34.18;27.00;48.52;;
69620;Laerm;57654;51.434;5.984;2024-01-30T00:44:23;34.96;26.94;49.25;;
69620;Laerm;57654;51.434;5.984;2024-01-30T00:44:36;34.92;27.12;49.10;;
69620;Laerm;57654;51.434;5.984;2024-01-30T00:44:49;34.29;27.25;47.73;;
69620;Laerm;57654;51.434;5.984;2024-01-30T00:45:00;34.43;27.12;48.47;;
69620;Laerm;57654;51.434;5.984;2024-01-30T00:45:13;34.00;27.29;47.84;;
69620;Laerm;57654;51.434;5.984;2024-01-30T00:45:24;34.27;27.09;47.81;;
69620;Laerm;57654;51.434;5.984;2024-01-30T00:45:34;34.73;27.12;48.40;;
69620;Laerm;57654;51.434;5.984;2024-01-30T00:45:45;34.34;27.14;47.70;;
69620;Laerm;57654;51.434;5.984;2024-01-30T00:45:55;34.50;27.03;48.76;;
69620;Laerm;57654;51.434;5.984;2024-01-30T00:46:05;34.28;27.10;47.70;;
69620;Laerm;57654;51.434;5.984;2024-01-30T00:46:15;34.89;27.02;48.50;;
69620;Laerm;57654;51.434;5.984;2024-01-30T00:46:26;34.86;27.15;49.43;;
69620;Laerm;57654;51.434;5.984;2024-01-30T00:46:36;34.22;27.08;48.15;;
69620;Laerm;57654;51.434;5.984;2024-01-30T00:46:46;34.58;27.21;49.61;;
69620;Laerm;57654;51.434;5.984;2024-01-30T00:46:57;34.20;27.16;47.23;;
69620;Laerm;57654;51.434;5.984;2024-01-30T00:47:07;34.41;27.21;49.49;;
69620;Laerm;57654;51.434;5.984;2024-01-30T00:47:17;34.86;27.24;50.20;;
69620;Laerm;57654;51.434;5.984;2024-01-30T00:47:27;34.37;27.41;48.03;;
69620;Laerm;57654;51.434;5.984;2024-01-30T00:47:39;33.92;27.04;47.54;;
69620;Laerm;57654;51.434;5.984;2024-01-30T00:47:49;34.42;27.18;48.35;;
69620;Laerm;57654;51.434;5.984;2024-01-30T00:47:59;34.19;27.15;47.64;;
69620;Laerm;57654;51.434;5.984;2024-01-30T00:48:09;34.59;27.03;49.40;;
69620;Laerm;57654;51.434;5.984;2024-01-30T00:48:20;34.51;27.18;48.70;;
69620;Laerm;57654;51.434;5.984;2024-01-30T00:48:30;34.95;27.18;47.98;;
69620;Laerm;57654;51.434;5.984;2024-01-30T00:48:40;34.45;27.02;49.34;;
69620;Laerm;57654;51.434;5.984;2024-01-30T00:48:51;34.06;26.89;47.26;;
69620;Laerm;57654;51.434;5.984;2024-01-30T00:49:01;34.41;27.31;47.77;;
69620;Laerm;57654;51.434;5.984;2024-01-30T00:49:11;37.67;27.82;50.55;;
69620;Laerm;57654;51.434;5.984;2024-01-30T00:49:21;43.96;38.04;50.15;;
69620;Laerm;57654;51.434;5.984;2024-01-30T00:49:32;44.70;41.22;49.87;;
69620;Laerm;57654;51.434;5.984;2024-01-30T00:49:42;41.38;31.13;48.63;;
69620;Laerm;57654;51.434;5.984;2024-01-30T00:49:52;34.91;28.18;48.13;;
69620;Laerm;57654;51.434;5.984;2024-01-30T00:50:02;34.55;27.22;49.67;;
69620;Laerm;57654;51.434;5.984;2024-01-30T00:50:13;34.04;26.94;48.04;;
69620;Laerm;57654;51.434;5.984;2024-01-30T00:50:23;34.41;27.15;49.61;;
69620;Laerm;57654;51.434;5.984;2024-01-30T00:50:33;35.06;27.24;48.54;;
69620;Laerm;57654;51.434;5.984;2024-01-30T00:50:43;34.17;27.08;48.53;;
69620;Laerm;57654;51.434;5.984;2024-01-30T00:50:54;34.60;27.09;48.80;;
69620;Laerm;57654;51.434;5.984;2024-01-30T00:51:04;34.78;27.11;49.68;;
69620;Laerm;57654;51.434;5.984;2024-01-30T00:51:14;34.46;27.25;48.18;;
69620;Laerm;57654;51.434;5.984;2024-01-30T00:51:25;35.03;26.89;49.34;;
69620;Laerm;57654;51.434;5.984;2024-01-30T00:51:35;34.54;27.22;49.87;;
69620;Laerm;57654;51.434;5.984;2024-01-30T00:51:45;34.46;27.17;48.72;;
69620;Laerm;57654;51.434;5.984;2024-01-30T00:51:56;33.70;27.06;46.67;;
69620;Laerm;57654;51.434;5.984;2024-01-30T00:52:06;34.46;26.94;50.57;;
69620;Laerm;57654;51.434;5.984;2024-01-30T00:52:16;34.09;27.14;46.93;;
69620;Laerm;57654;51.434;5.984;2024-01-30T00:52:27;34.81;27.12;50.33;;
69620;Laerm;57654;51.434;5.984;2024-01-30T00:52:37;34.21;27.25;47.70;;
69620;Laerm;57654;51.434;5.984;2024-01-30T00:52:49;34.19;27.01;47.00;;
69620;Laerm;57654;51.434;5.984;2024-01-30T00:52:59;33.91;27.02;46.67;;
69620;Laerm;57654;51.434;5.984;2024-01-30T00:53:09;34.75;27.39;48.68;;
69620;Laerm;57654;51.434;5.984;2024-01-30T00:53:19;40.14;29.84;50.46;;
69620;Laerm;57654;51.434;5.984;2024-01-30T00:53:30;45.74;43.09;49.53;;
69620;Laerm;57654;51.434;5.984;2024-01-30T00:53:40;43.31;39.77;50.24;;
69620;Laerm;57654;51.434;5.984;2024-01-30T00:53:51;37.66;28.35;46.53;;
69620;Laerm;57654;51.434;5.984;2024-01-30T00:54:01;34.16;27.35;49.38;;
69620;Laerm;57654;51.434;5.984;2024-01-30T00:54:12;34.24;26.92;48.18;;
69620;Laerm;57654;51.434;5.984;2024-01-30T00:54:23;34.23;26.90;48.32;;
69620;Laerm;57654;51.434;5.984;2024-01-30T00:54:33;35.14;27.17;50.49;;
69620;Laerm;57654;51.434;5.984;2024-01-30T00:54:43;34.29;27.21;47.67;;
69620;Laerm;57654;51.434;5.984;2024-01-30T00:54:53;33.97;26.91;48.88;;
69620;Laerm;57654;51.434;5.984;2024-01-30T00:55:04;34.36;27.06;48.25;;
69620;Laerm;57654;51.434;5.984;2024-01-30T00:55:14;34.14;27.06;48.31;;
69620;Laerm;57654;51.434;5.984;2024-01-30T00:55:25;34.30;27.12;48.70;;
69620;Laerm;57654;51.434;5.984;2024-01-30T00:55:35;34.53;26.70;48.03;;
69620;Laerm;57654;51.434;5.984;2024-01-30T00:55:45;34.20;26.91;47.01;;
69620;Laerm;57654;51.434;5.984;2024-01-30T00:55:56;33.89;27.15;47.38;;
69620;Laerm;57654;51.434;5.984;2024-01-30T00:56:06;33.80;27.03;46.46;;
69620;Laerm;57654;51.434;5.984;2024-01-30T00:56:16;34.47;27.12;50.70;;
69620;Laerm;57654;51.434;5.984;2024-01-30T00:56:28;34.94;26.91;49.69;;
69620;Laerm;57654;51.434;5.984;2024-01-30T00:56:38;34.47;27.04;48.66;;
69620;Laerm;57654;51.434;5.984;2024-01-30T00:56:49;34.19;27.24;48.55;;
69620;Laerm;57654;51.434;5.984;2024-01-30T00:56:59;34.19;27.26;48.42;;
69620;Laerm;57654;51.434;5.984;2024-01-30T00:57:09;34.79;27.20;49.40;;
69620;Laerm;57654;51.434;5.984;2024-01-30T00:57:19;34.00;27.22;47.65;;
69620;Laerm;57654;51.434;5.984;2024-01-30T00:57:30;34.29;26.92;47.46;;
69620;Laerm;57654;51.434;5.984;2024-01-30T00:57:40;33.94;27.04;47.77;;
69620;Laerm;57654;51.434;5.984;2024-01-30T00:57:50;34.11;26.96;47.69;;
69620;Laerm;57654;51.434;5.984;2024-01-30T00:58:01;34.00;27.01;47.81;;
69620;Laerm;57654;51.434;5.984;2024-01-30T00:58:11;34.58;27.16;48.19;;
69620;Laerm;57654;51.434;5.984;2024-01-30T00:58:21;34.63;27.22;49.69;;
69620;Laerm;57654;51.434;5.984;2024-01-30T00:58:31;34.74;27.01;50.45;;
69620;Laerm;57654;51.434;5.984;2024-01-30T00:58:42;33.84;27.25;47.80;;